Time;durP1;ratioP1;P1;durP2;ratioP2;P2;SDS_P1;SDS_P2;PMS_P1;PMS_P2;Temp;Humidity;BMP_temperature;BMP_pressure;BME280_temperature;BME280_humidity;BME280_pressure;Samples;Min_cycle;Max_cycle;Signal;HPM_P1;HPM_P2
2022/12/08 00:01:08;;;;;;;11.52;9.57;;;;;;;3.15;100.00;98209.44;4224461;27;20213;-48
2022/12/08 00:03:09;;;;;;;8.98;7.93;;;;;;;3.21;100.00;98212.13;4237500;27;20288;-47
2022/12/08 00:09:52;;;;;;;13.15;8.43;;;;;;;3.13;100.00;98201.53;4230318;27;20216;-47
2022/12/08 00:12:15;;;;;;;13.15;7.75;;;;;;;3.15;100.00;98204.84;4207399;28;20203;-48
2022/12/08 00:14:17;;;;;;;9.55;8.75;;;;;;;3.22;100.00;98194.88;4228033;27;20223;-47
2022/12/08 00:16:19;;;;;;;8.02;7.32;;;;;;;3.35;100.00;98197.53;4220727;27;20223;-48
2022/12/08 00:18:21;;;;;;;13.68;8.77;;;;;;;3.21;100.00;98198.59;4220172;27;20276;-49
2022/12/08 00:20:22;;;;;;;7.85;7.05;;;;;;;3.15;100.00;98194.03;4240924;27;20575;-49
2022/12/08 00:22:24;;;;;;;9.82;8.52;;;;;;;3.14;100.00;98191.56;4223715;27;20621;-47
2022/12/08 00:24:31;;;;;;;9.52;8.55;;;;;;;3.08;100.00;98182.41;4226917;27;20198;-47
2022/12/08 00:26:32;;;;;;;12.77;9.48;;;;;;;3.09;100.00;98189.50;4239363;27;20225;-48
2022/12/08 00:28:34;;;;;;;9.13;8.32;;;;;;;3.02;100.00;98183.25;4228959;27;20280;-47
2022/12/08 00:30:39;;;;;;;9.20;8.43;;;;;;;2.97;100.00;98180.38;4227662;27;20305;-48
2022/12/08 00:32:41;;;;;;;9.52;8.07;;;;;;;3.01;100.00;98176.19;4221202;27;20932;-49
2022/12/08 00:34:42;;;;;;;9.73;8.73;;;;;;;3.02;100.00;98182.44;4220204;27;20225;-47
2022/12/08 00:36:44;;;;;;;10.27;8.32;;;;;;;3.04;100.00;98181.19;4205664;28;20705;-47
2022/12/08 00:38:47;;;;;;;7.45;6.85;;;;;;;3.15;100.00;98177.81;4228349;27;20331;-47
2022/12/08 00:40:49;;;;;;;7.45;6.75;;;;;;;3.17;100.00;98173.06;4207677;28;20210;-50
2022/12/08 00:42:51;;;;;;;9.18;7.57;;;;;;;3.15;100.00;98172.41;4237874;27;20209;-48
2022/12/08 00:44:53;;;;;;;8.65;7.75;;;;;;;3.26;100.00;98182.59;4223742;27;20686;-49
2022/12/08 00:46:55;;;;;;;7.97;7.18;;;;;;;3.38;100.00;98178.19;4210748;28;20663;-48
2022/12/08 00:48:57;;;;;;;7.82;7.13;;;;;;;3.34;100.00;98178.84;4229347;27;20198;-49
2022/12/08 00:50:58;;;;;;;8.15;7.40;;;;;;;3.41;100.00;98177.75;4208260;28;20248;-50
2022/12/08 00:53:00;;;;;;;7.43;6.72;;;;;;;3.43;100.00;98181.09;4226417;27;20202;-49
2022/12/08 00:55:03;;;;;;;8.02;7.32;;;;;;;3.43;100.00;98181.09;4237620;27;20221;-48
2022/12/08 00:57:05;;;;;;;14.77;7.72;;;;;;;3.45;100.00;98183.56;4222799;27;20280;-48
2022/12/08 00:59:07;;;;;;;7.10;6.43;;;;;;;3.44;100.00;98176.50;4204693;28;20223;-48
2022/12/08 01:01:13;;;;;;;6.35;5.70;;;;;;;3.51;100.00;98164.63;4224249;27;20617;-48
2022/12/08 01:03:15;;;;;;;9.32;7.85;;;;;;;3.36;100.00;98169.47;4238001;27;20210;-49
2022/12/08 01:05:17;;;;;;;7.22;6.53;;;;;;;3.28;100.00;98164.28;4228284;27;20206;-47
2022/12/08 01:07:18;;;;;;;6.60;5.85;;;;;;;3.27;100.00;98165.31;4206847;28;20628;-49
2022/12/08 01:09:20;;;;;;;6.82;5.47;;;;;;;3.22;100.00;98161.59;4223277;27;22127;-47
2022/12/08 01:11:22;;;;;;;6.95;5.65;;;;;;;3.20;100.00;98159.09;4238105;27;20251;-48
2022/12/08 01:13:24;;;;;;;6.78;5.82;;;;;;;3.20;100.00;98167.22;4221074;27;20665;-49
2022/12/08 01:15:26;;;;;;;9.10;5.97;;;;;;;3.13;100.00;98162.88;4226301;27;20221;-48
2022/12/08 01:17:27;;;;;;;7.28;6.55;;;;;;;3.16;100.00;98160.59;4238404;27;20209;-48
2022/12/08 01:19:29;;;;;;;7.18;6.03;;;;;;;3.17;100.00;98153.28;4222645;27;22419;-47
2022/12/08 01:21:31;;;;;;;13.07;7.40;;;;;;;3.24;100.00;98149.53;4221950;27;20202;-47
2022/12/08 01:23:34;;;;;;;8.05;7.35;;;;;;;3.27;100.00;98140.19;4210521;28;20222;-50
2022/12/08 01:25:35;;;;;;;6.45;5.85;;;;;;;3.27;100.00;98143.69;4224384;27;20202;-48
2022/12/08 01:27:37;;;;;;;7.18;5.82;;;;;;;3.13;100.00;98144.78;4222671;27;20619;-49
2022/12/08 01:29:39;;;;;;;9.93;6.35;;;;;;;3.02;100.00;98139.19;4223692;27;20212;-48
2022/12/08 01:31:41;;;;;;;7.55;6.95;;;;;;;2.96;100.00;98135.50;4207159;27;20322;-48
2022/12/08 01:33:44;;;;;;;6.70;6.10;;;;;;;2.94;100.00;98132.16;4218733;27;20257;-48
2022/12/08 01:35:45;;;;;;;4.82;4.40;;;;;;;2.91;100.00;98131.75;4237934;27;20276;-48
2022/12/08 01:37:49;;;;;;;6.65;6.05;;;;;;;2.98;100.00;98132.56;4220468;27;20299;-48
2022/12/08 01:39:50;;;;;;;6.93;6.13;;;;;;;3.05;100.00;98134.22;4224527;27;20202;-48
2022/12/08 01:41:52;;;;;;;7.13;6.43;;;;;;;2.96;100.00;98135.50;4221190;28;20206;-48
2022/12/08 01:44:09;;;;;;;7.70;6.25;;;;;;;2.87;100.00;98136.72;4217763;28;20236;-47
2022/12/08 01:46:11;;;;;;;7.50;5.53;;;;;;;2.89;100.00;98126.56;4224613;27;20648;-47
2022/12/08 01:48:18;;;;;;;5.78;4.72;;;;;;;2.88;100.00;98127.59;4205703;28;20210;-49
2022/12/08 01:50:21;;;;;;;9.15;7.63;;;;;;;3.00;100.00;98131.31;4218757;27;20583;-48
2022/12/08 01:52:27;;;;;;;6.07;5.55;;;;;;;2.95;100.00;98131.09;4220793;27;20197;-48
2022/12/08 01:54:39;;;;;;;5.63;5.13;;;;;;;2.89;100.00;98123.88;4223438;27;20263;-47
2022/12/08 01:57:07;;;;;;;6.68;5.75;;;;;;;2.89;100.00;98136.53;4219990;27;20225;-48
2022/12/08 01:59:09;;;;;;;7.35;5.95;;;;;;;2.90;100.00;98135.50;4215045;28;20241;-49
2022/12/08 02:01:11;;;;;;;6.25;4.70;;;;;;;3.04;100.00;98135.25;4219751;27;20296;-48
2022/12/08 02:03:46;;;;;;;6.32;5.07;;;;;;;3.03;100.00;98130.91;4221474;27;20210;-47
2022/12/08 02:05:48;;;;;;;7.28;5.15;;;;;;;3.09;100.00;98130.06;4213733;27;20231;-48
2022/12/08 02:07:51;;;;;;;6.05;5.55;;;;;;;3.27;100.00;98129.38;4238188;27;20244;-48
2022/12/08 02:09:53;;;;;;;8.48;5.82;;;;;;;3.23;100.00;98126.25;4220186;28;20662;-48
2022/12/08 02:11:56;;;;;;;5.95;5.35;;;;;;;3.11;100.00;98121.72;4225798;28;20198;-50
2022/12/08 02:13:59;;;;;;;9.90;5.93;;;;;;;3.09;100.00;98124.66;4232404;27;20233;-48
2022/12/08 02:16:16;;;;;;;5.93;4.45;;;;;;;3.09;100.00;98126.50;4238521;27;20228;-50
2022/12/08 02:18:30;;;;;;;6.50;5.45;;;;;;;3.08;100.00;98122.97;4227690;28;20209;-50
2022/12/08 02:20:52;;;;;;;5.80;5.22;;;;;;;3.10;100.00;98115.50;4223165;28;20282;-49
2022/12/08 02:23:14;;;;;;;6.00;5.45;;;;;;;3.16;100.00;98122.75;4224596;27;20245;-48
2022/12/08 02:25:22;;;;;;;7.40;5.50;;;;;;;3.05;100.00;98118.00;4227407;27;20200;-51
2022/12/08 02:27:35;;;;;;;5.60;5.10;;;;;;;3.03;100.00;98117.38;4230806;27;20213;-49
2022/12/08 02:30:12;;;;;;;6.28;4.85;;;;;;;2.88;100.00;98115.97;4228772;27;20239;-49
2022/12/08 02:32:47;;;;;;;5.70;5.20;;;;;;;3.04;100.00;98105.53;4242054;27;20336;-47
2022/12/08 02:34:58;;;;;;;6.95;6.35;;;;;;;3.12;100.00;98108.00;4243781;27;20349;-48
2022/12/08 02:37:59;;;;;;;6.20;5.70;;;;;;;3.02;100.00;98107.59;4229251;27;20233;-49
2022/12/08 02:40:11;;;;;;;5.97;5.38;;;;;;;3.05;100.00;98104.47;4180461;28;20244;-48
2022/12/08 02:42:22;;;;;;;5.90;5.28;;;;;;;3.05;100.00;98109.88;4188346;28;20546;-49
2022/12/08 02:44:40;;;;;;;11.88;5.53;;;;;;;3.07;100.00;98105.09;4202572;27;20669;-49
2022/12/08 02:46:52;;;;;;;6.28;5.75;;;;;;;2.99;100.00;98102.63;4226213;27;20294;-48
2022/12/08 02:48:54;;;;;;;7.28;5.90;;;;;;;3.02;100.00;98096.78;4221962;27;20310;-48
2022/12/08 02:50:56;;;;;;;11.05;6.22;;;;;;;3.09;100.00;98102.19;4211550;28;21100;-48
2022/12/08 02:52:58;;;;;;;6.18;5.15;;;;;;;3.11;100.00;98106.34;4227241;27;20209;-50
2022/12/08 02:55:05;;;;;;;7.00;6.30;;;;;;;3.03;100.00;98092.22;4229026;27;20218;-49
2022/12/08 02:57:10;;;;;;;8.07;5.75;;;;;;;3.05;100.00;98090.97;4211359;28;20226;-53
2022/12/08 02:59:30;;;;;;;7.35;6.18;;;;;;;3.13;100.00;98093.44;4240436;27;20629;-48
2022/12/08 03:01:36;;;;;;;6.95;5.85;;;;;;;3.02;100.00;98085.97;4226062;27;20598;-49
2022/12/08 03:03:51;;;;;;;6.85;6.15;;;;;;;3.03;100.00;98089.53;4211718;27;20248;-48
2022/12/08 03:06:05;;;;;;;6.47;5.85;;;;;;;3.02;100.00;98091.38;4235558;27;20225;-48
2022/12/08 03:08:46;;;;;;;6.97;5.75;;;;;;;3.05;100.00;98082.88;4229063;27;20206;-48
2022/12/08 03:10:55;;;;;;;7.90;7.10;;;;;;;2.95;100.00;98078.94;4220333;27;20206;-49
2022/12/08 03:13:05;;;;;;;6.82;5.82;;;;;;;2.99;100.00;98070.19;4208046;28;22402;-48
2022/12/08 03:15:11;;;;;;;12.43;6.68;;;;;;;3.05;100.00;98069.34;4208885;28;20814;-48
2022/12/08 03:17:14;;;;;;;6.53;4.53;;;;;;;3.06;100.00;98081.81;4221504;27;20264;-48
2022/12/08 03:19:34;;;;;;;8.02;6.47;;;;;;;3.05;100.00;98082.88;4223304;27;20211;-49
2022/12/08 03:21:36;;;;;;;7.35;5.85;;;;;;;3.00;100.00;98079.97;4221487;27;20218;-50
2022/12/08 03:23:40;;;;;;;6.88;6.18;;;;;;;3.06;100.00;98079.09;4224878;27;20218;-48
2022/12/08 03:26:01;;;;;;;11.48;7.30;;;;;;;3.15;100.00;98074.31;4235094;27;20233;-48
2022/12/08 03:28:04;;;;;;;8.02;7.28;;;;;;;3.02;100.00;98075.16;4238129;27;20726;-47
2022/12/08 03:30:06;;;;;;;6.82;6.22;;;;;;;3.21;100.00;98074.25;4207198;27;20735;-49
2022/12/08 03:32:28;;;;;;;8.80;6.38;;;;;;;3.24;100.00;98068.44;4240512;27;20652;-48
2022/12/08 03:34:30;;;;;;;6.80;6.10;;;;;;;3.17;100.00;98064.94;4231019;27;20260;-48
2022/12/08 03:36:32;;;;;;;12.98;5.43;;;;;;;3.20;100.00;98059.09;4220275;27;20226;-48
2022/12/08 03:38:42;;;;;;;9.52;7.15;;;;;;;3.12;100.00;98059.34;4206926;28;20206;-47
2022/12/08 03:41:17;;;;;;;10.73;7.88;;;;;;;3.09;100.00;98054.38;4230284;27;20267;-47
2022/12/08 03:43:06;;;;;;;11.30;7.50;;;;;;;3.12;100.00;98064.75;4238275;27;20223;-50
2022/12/08 03:45:08;;;;;;;12.13;6.50;;;;;;;3.12;100.00;98047.69;4209701;28;20260;-49
2022/12/08 03:47:10;;;;;;;8.45;6.78;;;;;;;3.07;100.00;98056.44;4242386;27;20304;-49
2022/12/08 03:49:15;;;;;;;8.75;7.35;;;;;;;3.02;100.00;98048.13;4222956;27;20759;-48
2022/12/08 03:51:18;;;;;;;8.32;7.53;;;;;;;3.15;100.00;98047.28;4225818;27;20615;-49
2022/12/08 03:53:20;;;;;;;7.70;6.90;;;;;;;3.16;100.00;98041.66;4243345;27;20265;-48
2022/12/08 03:55:21;;;;;;;8.73;7.40;;;;;;;2.99;100.00;98039.63;4227158;27;20382;-49
2022/12/08 03:57:23;;;;;;;7.75;6.65;;;;;;;3.04;100.00;98040.69;4241407;27;20213;-50
2022/12/08 03:59:25;;;;;;;12.48;7.57;;;;;;;3.04;100.00;98035.28;4238853;27;20200;-49
2022/12/08 04:01:27;;;;;;;7.38;6.70;;;;;;;3.08;100.00;98041.88;4222063;27;20736;-48
2022/12/08 04:03:29;;;;;;;7.72;6.85;;;;;;;2.98;100.00;98036.13;4222251;27;20210;-49
2022/12/08 04:05:31;;;;;;;7.78;7.00;;;;;;;3.09;100.00;98038.16;4239952;27;20205;-48
2022/12/08 04:07:33;;;;;;;9.15;7.93;;;;;;;3.12;100.00;98032.31;4211320;28;20382;-51
2022/12/08 04:09:34;;;;;;;15.32;7.88;;;;;;;3.12;100.00;98037.72;4204932;28;20231;-48
2022/12/08 04:11:36;;;;;;;9.38;8.13;;;;;;;3.03;100.00;98028.22;4241795;27;20225;-48
2022/12/08 04:13:39;;;;;;;8.60;7.78;;;;;;;3.07;100.00;98018.59;4239101;27;20209;-49
2022/12/08 04:15:45;;;;;;;6.88;6.28;;;;;;;3.03;100.00;98025.50;4220601;27;20253;-47
2022/12/08 04:17:47;;;;;;;13.88;7.70;;;;;;;2.94;100.00;98024.06;4228054;27;20236;-48
2022/12/08 04:19:49;;;;;;;11.88;8.25;;;;;;;2.88;100.00;98024.91;4224505;27;20263;-48
2022/12/08 04:21:51;;;;;;;11.77;8.20;;;;;;;2.93;100.00;98017.00;4206726;28;20203;-47
2022/12/08 04:23:53;;;;;;;9.77;8.07;;;;;;;2.91;100.00;98024.50;4242438;27;20244;-47
2022/12/08 04:26:02;;;;;;;11.73;8.63;;;;;;;2.91;100.00;98008.31;4227556;27;20240;-48
2022/12/08 04:28:04;;;;;;;10.30;9.18;;;;;;;2.88;100.00;98014.13;4226324;27;20233;-48
2022/12/08 04:30:07;;;;;;;10.70;7.53;;;;;;;2.88;100.00;98014.13;4223535;27;20236;-48
2022/12/08 04:32:09;;;;;;;9.27;8.32;;;;;;;2.88;100.00;98008.72;4222271;27;20268;-49
2022/12/08 04:34:10;;;;;;;11.07;7.93;;;;;;;2.87;100.00;98011.66;4223162;27;20602;-48
2022/12/08 04:36:12;;;;;;;9.15;8.18;;;;;;;2.87;100.00;98012.47;4227217;27;20229;-49
2022/12/08 04:38:14;;;;;;;8.82;7.60;;;;;;;2.80;100.00;98006.25;4204478;28;20203;-49
2022/12/08 04:40:17;;;;;;;10.68;8.05;;;;;;;2.87;100.00;98001.66;4224848;27;20298;-48
2022/12/08 04:42:19;;;;;;;9.98;7.88;;;;;;;2.79;100.00;98003.75;4228349;27;20206;-48
2022/12/08 04:44:21;;;;;;;11.48;8.85;;;;;;;2.91;100.00;98007.47;4222272;27;20202;-48
2022/12/08 04:46:22;;;;;;;10.75;8.38;;;;;;;2.90;100.00;98006.66;4225006;27;20256;-48
2022/12/08 04:48:24;;;;;;;8.65;7.28;;;;;;;2.83;100.00;98000.44;4224027;27;20221;-48
2022/12/08 04:50:27;;;;;;;10.45;8.75;;;;;;;2.84;100.00;98006.66;4202476;28;20202;-48
2022/12/08 04:52:28;;;;;;;12.10;8.70;;;;;;;2.82;100.00;98006.88;4241529;27;20208;-50
2022/12/08 04:54:30;;;;;;;12.30;8.88;;;;;;;2.93;100.00;98006.22;4218591;27;20321;-48
2022/12/08 04:56:32;;;;;;;10.52;8.63;;;;;;;2.89;100.00;98002.28;4243200;27;20700;-48
2022/12/08 04:58:34;;;;;;;14.23;8.90;;;;;;;2.88;100.00;98002.50;4209019;28;20272;-48
2022/12/08 05:00:35;;;;;;;8.80;7.95;;;;;;;2.93;100.00;98006.22;4220291;27;20249;-49
2022/12/08 05:02:37;;;;;;;15.68;7.45;;;;;;;2.88;100.00;98005.19;4203432;27;20301;-49
2022/12/08 05:04:39;;;;;;;11.07;9.30;;;;;;;2.94;100.00;98002.47;4225045;27;20435;-47
2022/12/08 05:06:44;;;;;;;11.35;9.00;;;;;;;2.94;100.00;98009.75;4206082;28;20226;-48
2022/12/08 05:08:45;;;;;;;14.73;9.70;;;;;;;2.96;100.00;97995.00;4236225;27;20210;-48
2022/12/08 05:10:47;;;;;;;8.88;7.97;;;;;;;2.99;100.00;97993.69;4221358;27;20298;-47
2022/12/08 05:12:49;;;;;;;9.20;8.27;;;;;;;3.02;100.00;97994.09;4238567;27;20729;-48
2022/12/08 05:14:51;;;;;;;9.88;8.02;;;;;;;2.99;100.00;97994.53;4224591;27;20241;-49
2022/12/08 05:16:53;;;;;;;9.80;8.88;;;;;;;2.99;100.00;97993.69;4237615;27;20221;-48
2022/12/08 05:18:54;;;;;;;9.00;7.90;;;;;;;3.03;100.00;97990.38;4226920;27;20249;-48
2022/12/08 05:20:56;;;;;;;12.40;8.20;;;;;;;3.04;100.00;98002.00;4225591;27;20249;-48
2022/12/08 05:22:58;;;;;;;9.30;8.25;;;;;;;3.07;100.00;97994.28;4219733;27;20230;-48
2022/12/08 05:25:00;;;;;;;10.18;7.82;;;;;;;3.03;100.00;97995.78;4219507;27;20243;-50
2022/12/08 05:27:02;;;;;;;10.43;7.65;;;;;;;3.03;100.00;97990.38;4218604;27;20229;-48
2022/12/08 05:29:04;;;;;;;8.85;7.80;;;;;;;3.00;100.00;97985.38;4221430;27;20206;-48
2022/12/08 05:31:06;;;;;;;8.77;7.53;;;;;;;3.10;100.00;97984.94;4233808;27;20328;-49
2022/12/08 05:33:07;;;;;;;11.63;8.55;;;;;;;3.12;100.00;97983.66;4202394;28;20212;-50
2022/12/08 05:35:10;;;;;;;8.63;7.72;;;;;;;3.10;100.00;97982.22;4218076;27;20252;-48
2022/12/08 05:37:11;;;;;;;13.20;8.27;;;;;;;3.18;100.00;97987.38;4218750;27;20226;-48
2022/12/08 05:39:14;;;;;;;7.93;7.15;;;;;;;3.17;100.00;97983.00;4197636;28;20203;-48
2022/12/08 05:41:19;;;;;;;8.90;8.07;;;;;;;3.03;100.00;97979.56;4220249;27;20580;-48
2022/12/08 05:43:25;;;;;;;10.07;8.00;;;;;;;3.13;100.00;97985.31;4221829;27;20209;-48
2022/12/08 05:45:30;;;;;;;14.68;9.75;;;;;;;3.16;100.00;97984.06;4218513;27;20227;-49
2022/12/08 05:47:32;;;;;;;9.48;7.75;;;;;;;3.16;100.00;97981.38;4216110;28;20675;-50
2022/12/08 05:49:37;;;;;;;10.05;7.80;;;;;;;3.07;100.00;97975.38;4234800;27;20700;-48
2022/12/08 05:51:41;;;;;;;10.40;8.43;;;;;;;3.04;100.00;97980.38;4210127;27;20688;-49
2022/12/08 05:53:47;;;;;;;9.82;8.82;;;;;;;2.98;100.00;97982.09;4214185;27;20210;-48
2022/12/08 05:55:49;;;;;;;9.32;8.45;;;;;;;3.03;100.00;97979.56;4217692;27;20320;-47
2022/12/08 05:57:50;;;;;;;17.30;9.82;;;;;;;3.13;100.00;97985.31;4235096;27;20292;-48
2022/12/08 05:59:52;;;;;;;9.13;8.23;;;;;;;3.11;100.00;97984.72;4219906;27;20221;-47
2022/12/08 06:01:54;;;;;;;9.95;7.65;;;;;;;3.19;100.00;97979.06;4201880;28;20608;-48
2022/12/08 06:03:58;;;;;;;10.85;9.02;;;;;;;3.12;100.00;97980.97;4207935;28;20203;-48
2022/12/08 06:05:59;;;;;;;10.07;8.43;;;;;;;2.98;100.00;97984.78;4224129;27;20259;-49
2022/12/08 06:08:01;;;;;;;11.10;7.88;;;;;;;3.03;100.00;97984.97;4225468;28;20205;-51
2022/12/08 06:10:04;;;;;;;10.82;8.15;;;;;;;3.10;100.00;97991.19;4237513;27;20220;-48
2022/12/08 06:12:06;;;;;;;11.23;8.07;;;;;;;3.15;100.00;97988.63;4220464;28;20218;-48
2022/12/08 06:14:10;;;;;;;9.38;7.85;;;;;;;3.15;100.00;97993.22;4239292;27;20250;-49
2022/12/08 06:16:12;;;;;;;7.78;7.07;;;;;;;3.26;100.00;97990.66;4221401;28;20642;-50
2022/12/08 06:18:14;;;;;;;8.75;8.05;;;;;;;3.23;100.00;97993.81;4224393;28;20753;-50
2022/12/08 06:20:16;;;;;;;9.13;8.25;;;;;;;3.31;100.00;97990.00;4223918;28;20213;-48
2022/12/08 06:22:18;;;;;;;8.23;7.40;;;;;;;3.27;100.00;97986.91;4222933;28;20266;-49
2022/12/08 06:24:20;;;;;;;11.68;9.00;;;;;;;3.32;100.00;97984.38;4224767;28;20237;-49
2022/12/08 06:26:22;;;;;;;9.50;8.60;;;;;;;3.17;100.00;97981.16;4224633;28;20511;-51
2022/12/08 06:28:24;;;;;;;13.25;9.52;;;;;;;3.13;100.00;97982.63;4222751;28;20254;-49
2022/12/08 06:30:27;;;;;;;13.55;7.88;;;;;;;3.14;100.00;97978.88;4203990;28;20765;-48
2022/12/08 06:32:29;;;;;;;9.70;8.77;;;;;;;3.03;100.00;97984.97;4224859;28;20677;-49
2022/12/08 06:34:31;;;;;;;9.63;8.65;;;;;;;3.06;100.00;97973.72;4238370;27;20210;-48
2022/12/08 06:36:33;;;;;;;9.60;8.60;;;;;;;3.03;100.00;97973.31;4220608;28;20230;-50
2022/12/08 06:38:35;;;;;;;9.52;8.68;;;;;;;2.97;100.00;97977.72;4225827;28;20745;-47
2022/12/08 06:40:43;;;;;;;9.07;8.13;;;;;;;2.90;100.00;97973.38;4237863;27;20232;-48
2022/12/08 06:42:46;;;;;;;10.63;9.50;;;;;;;2.87;100.00;97979.25;4220060;28;20658;-49
2022/12/08 06:44:47;;;;;;;13.20;9.18;;;;;;;2.90;100.00;97978.78;4221150;28;20713;-48
2022/12/08 06:46:49;;;;;;;9.63;8.23;;;;;;;3.01;100.00;97981.63;4219784;28;20222;-48
2022/12/08 06:48:51;;;;;;;11.70;9.85;;;;;;;2.98;100.00;97982.09;4222600;28;20271;-47
2022/12/08 06:50:53;;;;;;;12.65;9.38;;;;;;;3.00;100.00;97971.06;4220763;28;20206;-48
2022/12/08 06:52:55;;;;;;;9.65;7.40;;;;;;;2.98;100.00;97976.69;4238459;27;20209;-48
2022/12/08 06:55:06;;;;;;;8.40;7.05;;;;;;;2.94;100.00;97978.13;4226887;27;20251;-48
2022/12/08 06:57:08;;;;;;;9.80;8.77;;;;;;;2.84;100.00;97969.69;4221698;28;20226;-48
2022/12/08 06:59:10;;;;;;;7.95;7.15;;;;;;;2.89;100.00;97977.97;4222175;28;20606;-48
2022/12/08 07:01:12;;;;;;;10.20;7.70;;;;;;;2.97;100.00;97975.03;4226385;28;20613;-48
2022/12/08 07:03:14;;;;;;;11.18;9.65;;;;;;;2.97;100.00;97980.44;4227091;28;20198;-47
2022/12/08 07:05:16;;;;;;;9.13;7.40;;;;;;;2.93;100.00;97984.59;4219976;28;20213;-48
2022/12/08 07:07:18;;;;;;;9.13;8.23;;;;;;;2.94;100.00;97974.63;4238878;27;20812;-50
2022/12/08 07:09:20;;;;;;;12.10;8.15;;;;;;;2.86;100.00;97983.78;4221913;28;20210;-48
2022/12/08 07:11:22;;;;;;;11.93;8.07;;;;;;;2.84;100.00;97977.78;4227778;27;20216;-48
2022/12/08 07:13:24;;;;;;;10.50;8.63;;;;;;;2.87;100.00;97974.66;4227662;27;20198;-49
2022/12/08 07:15:29;;;;;;;7.90;6.43;;;;;;;3.03;100.00;97984.13;4221909;27;20209;-47
2022/12/08 07:17:30;;;;;;;12.45;8.77;;;;;;;3.04;100.00;97981.22;4239734;27;20209;-48
2022/12/08 07:19:32;;;;;;;10.02;7.70;;;;;;;3.10;100.00;97976.81;4225134;27;20677;-49
2022/12/08 07:21:34;;;;;;;9.38;8.48;;;;;;;3.14;100.00;97988.88;4226053;27;20214;-49
2022/12/08 07:23:36;;;;;;;8.82;6.95;;;;;;;3.17;100.00;97983.84;4209612;28;20229;-48
2022/12/08 07:25:38;;;;;;;9.30;7.75;;;;;;;3.27;100.00;97984.19;4241663;27;20335;-50
2022/12/08 07:27:40;;;;;;;10.95;8.88;;;;;;;3.26;100.00;97985.25;4240779;27;20212;-48
2022/12/08 07:29:42;;;;;;;9.68;7.28;;;;;;;3.15;100.00;97972.41;4227047;27;20684;-49
2022/12/08 07:31:44;;;;;;;8.38;7.55;;;;;;;3.09;100.00;97981.41;4234752;27;20941;-47
2022/12/08 07:33:46;;;;;;;8.75;5.38;;;;;;;3.21;100.00;97979.66;4227617;27;20978;-48
2022/12/08 07:35:56;;;;;;;7.40;6.68;;;;;;;3.07;100.00;97972.66;4226407;27;20573;-47
2022/12/08 07:37:57;;;;;;;7.43;6.38;;;;;;;3.03;100.00;97971.47;4228812;27;20202;-50
2022/12/08 07:39:59;;;;;;;6.80;6.15;;;;;;;3.00;100.00;97968.38;4228949;27;20258;-48
2022/12/08 07:42:01;;;;;;;10.73;7.53;;;;;;;2.98;100.00;97971.28;4227312;27;20210;-48
2022/12/08 07:44:04;;;;;;;6.63;5.80;;;;;;;2.99;100.00;97975.63;4240743;27;20201;-48
2022/12/08 07:46:06;;;;;;;5.90;5.35;;;;;;;3.02;100.00;97967.06;4223194;27;20218;-49
2022/12/08 07:48:07;;;;;;;6.53;5.93;;;;;;;2.88;100.00;97976.28;4221754;27;20210;-49
2022/12/08 07:50:09;;;;;;;7.88;7.07;;;;;;;2.98;100.00;97973.97;4227044;27;20244;-48
2022/12/08 07:52:11;;;;;;;9.02;5.75;;;;;;;3.05;100.00;97969.38;4244098;27;20206;-48
2022/12/08 07:54:13;;;;;;;6.22;5.63;;;;;;;3.21;100.00;97971.56;4242099;27;20228;-47
2022/12/08 07:56:15;;;;;;;5.90;5.40;;;;;;;3.26;100.00;97974.44;4223579;27;20252;-47
2022/12/08 07:58:17;;;;;;;7.72;6.97;;;;;;;3.14;100.00;97969.94;4224399;27;20313;-48
2022/12/08 08:00:19;;;;;;;6.38;5.72;;;;;;;3.10;100.00;97964.16;4245026;27;20208;-48
2022/12/08 08:02:21;;;;;;;6.40;5.78;;;;;;;3.00;100.00;97969.19;4239853;27;20197;-50
2022/12/08 08:04:26;;;;;;;6.95;5.63;;;;;;;3.10;100.00;97964.16;4226688;27;20204;-50
2022/12/08 08:06:30;;;;;;;6.18;5.57;;;;;;;3.11;100.00;97973.06;4238250;27;20304;-47
2022/12/08 08:08:32;;;;;;;6.40;5.80;;;;;;;3.12;100.00;97964.75;4240975;27;20210;-48
2022/12/08 08:10:33;;;;;;;6.78;6.07;;;;;;;3.02;100.00;97972.47;4209735;28;20209;-48
2022/12/08 08:12:37;;;;;;;5.88;5.28;;;;;;;3.08;100.00;97966.22;4206190;28;20268;-49
2022/12/08 08:14:39;;;;;;;6.05;5.55;;;;;;;3.17;100.00;97964.94;4222526;27;20218;-48
2022/12/08 08:16:45;;;;;;;6.35;5.75;;;;;;;3.01;100.00;97970.84;4239911;27;20282;-49
2022/12/08 08:18:48;;;;;;;5.68;5.18;;;;;;;3.24;100.00;97971.13;4206094;27;20211;-48
2022/12/08 08:20:50;;;;;;;9.82;5.72;;;;;;;3.18;100.00;97966.59;4242133;27;20680;-48
2022/12/08 08:22:52;;;;;;;5.85;5.25;;;;;;;3.06;100.00;97968.31;4207499;28;20215;-47
2022/12/08 08:24:54;;;;;;;7.13;4.80;;;;;;;3.08;100.00;97968.91;4237347;27;20736;-49
2022/12/08 08:26:58;;;;;;;6.25;5.65;;;;;;;3.09;100.00;97973.31;4225690;27;20222;-47
2022/12/08 08:29:00;;;;;;;7.18;5.72;;;;;;;3.14;100.00;97965.34;4238478;27;20745;-50
2022/12/08 08:31:02;;;;;;;6.25;5.63;;;;;;;3.16;100.00;97968.69;4209352;28;20565;-50
2022/12/08 08:33:04;;;;;;;4.50;3.90;;;;;;;3.32;100.00;97976.28;4222762;27;20210;-50
2022/12/08 08:35:06;;;;;;;5.63;5.00;;;;;;;3.07;100.00;97969.97;4217838;27;20236;-49
2022/12/08 08:37:11;;;;;;;6.28;5.68;;;;;;;3.05;100.00;97971.22;4216848;27;20686;-48
2022/12/08 08:39:13;;;;;;;5.75;5.15;;;;;;;3.01;100.00;97970.84;4203412;28;20215;-48
2022/12/08 08:41:15;;;;;;;5.50;5.00;;;;;;;3.02;100.00;97967.06;4228916;27;20220;-47
2022/12/08 08:43:29;;;;;;;6.05;5.45;;;;;;;3.09;100.00;97967.91;4223009;27;20251;-48
2022/12/08 08:45:38;;;;;;;5.50;4.50;;;;;;;2.97;100.00;97975.03;4240534;27;22112;-48
2022/12/08 08:47:40;;;;;;;7.63;6.93;;;;;;;3.08;100.00;97971.63;4204756;28;20584;-48
2022/12/08 08:49:42;;;;;;;6.22;5.63;;;;;;;3.00;100.00;97969.19;4229143;27;20582;-49
2022/12/08 08:51:44;;;;;;;4.72;4.28;;;;;;;3.08;100.00;97970.81;4218295;28;20212;-48
2022/12/08 08:53:46;;;;;;;5.75;5.20;;;;;;;3.09;100.00;97967.91;4225006;27;20685;-48
2022/12/08 08:55:48;;;;;;;5.88;5.47;;;;;;;3.10;100.00;97969.56;4223034;27;20706;-49
2022/12/08 08:57:50;;;;;;;5.75;5.20;;;;;;;3.02;100.00;97966.28;4236757;27;20206;-48
2022/12/08 08:59:52;;;;;;;7.20;6.43;;;;;;;3.02;100.00;97967.06;4222067;27;20268;-48
2022/12/08 09:01:54;;;;;;;5.75;5.15;;;;;;;3.14;100.00;97965.34;4225680;27;20617;-47
2022/12/08 09:03:57;;;;;;;5.25;4.85;;;;;;;3.11;100.00;97960.41;4228642;27;20206;-48
2022/12/08 09:05:59;;;;;;;4.55;4.15;;;;;;;3.23;100.00;97966.78;4226009;27;20279;-49
2022/12/08 09:08:01;;;;;;;6.20;5.60;;;;;;;3.42;100.00;97957.72;4222425;27;20205;-47
2022/12/08 09:10:03;;;;;;;7.20;5.95;;;;;;;3.42;100.00;97963.13;4226712;27;20202;-47
2022/12/08 09:12:05;;;;;;;6.68;6.07;;;;;;;3.33;100.00;97964.41;4221408;27;20248;-47
2022/12/08 09:14:11;;;;;;;6.90;6.20;;;;;;;3.23;100.00;97966.78;4220281;27;20194;-48
2022/12/08 09:16:13;;;;;;;6.68;5.72;;;;;;;3.25;100.00;97961.13;4224140;27;20226;-48
2022/12/08 09:18:14;;;;;;;6.25;5.65;;;;;;;3.24;100.00;97954.91;4237889;27;20261;-48
2022/12/08 09:20:16;;;;;;;7.13;6.55;;;;;;;3.32;100.00;97957.34;4228304;27;20206;-48
2022/12/08 09:22:18;;;;;;;6.78;6.10;;;;;;;3.36;100.00;97964.00;4226308;27;20217;-49
2022/12/08 09:24:20;;;;;;;6.88;5.95;;;;;;;3.23;100.00;97955.97;4225254;27;20798;-50
2022/12/08 09:26:22;;;;;;;8.00;7.22;;;;;;;3.38;100.00;97961.88;4240796;27;20221;-48
2022/12/08 09:28:24;;;;;;;17.17;6.28;;;;;;;3.48;100.00;97951.41;4241308;27;20200;-48
2022/12/08 09:30:27;;;;;;;15.75;6.03;;;;;;;3.50;100.00;97953.88;4195099;28;20208;-48
2022/12/08 09:32:29;;;;;;;6.43;5.82;;;;;;;3.45;100.00;97956.41;4222050;27;20255;-48
2022/12/08 09:34:31;;;;;;;6.53;5.95;;;;;;;3.48;100.00;97956.81;4221144;27;20199;-48
2022/12/08 09:36:33;;;;;;;5.70;5.18;;;;;;;3.56;100.00;97948.44;4223227;27;20255;-47
2022/12/08 09:38:35;;;;;;;6.15;5.60;;;;;;;3.52;100.00;97941.81;4222463;27;20209;-47
2022/12/08 09:40:43;;;;;;;6.90;6.28;;;;;;;3.57;100.00;97950.09;4241615;27;20222;-48
2022/12/08 09:43:09;;;;;;;8.13;6.05;;;;;;;3.59;100.00;97948.00;4226163;27;20204;-48
2022/12/08 09:45:13;;;;;;;6.78;6.22;;;;;;;3.46;100.00;97948.09;4222058;27;20220;-48
2022/12/08 09:47:34;;;;;;;7.22;6.53;;;;;;;3.40;100.00;97942.75;4209288;28;20230;-48
2022/12/08 09:49:40;;;;;;;7.97;6.40;;;;;;;3.44;100.00;97955.59;4225279;27;20909;-49